首页
METAR-TAF:

METAR-TAF

机场 :

迈克蒂亚西蒙·玻利瓦尔国际机场

卡拉卡斯, 委内瑞拉

纬度: 10-36N, 经度: 066-59W, 海拔: 43米

当前天气观测

该预报发布于36分钟前的18:00 UTC
风速3节,风向
温度 30°C
湿度 75%
气压 1013 hPa
能见度10公里或以上
散云层高于1600英尺

METAR: SVMI 171800Z 09003KT 9999 SCT016 30/25 Q1013

时间: 14:36 (18:36 UTC)

预报

该预报发布于2小时和36分钟前的16:00 UTC
预报有效从17日的 18点(UTC)到 18日的 18点(UTC)
风速6节,风向东北
能见度10公里或以上
少量云层高于1600英尺
成为
从 17日的 18点(UTC)到 17日的 23点(UTC)
风速8节,风向东北
散云层高于1600英尺

TAF: SVMI 171600Z 1718/1818 05006KT 9999 FEW016 TX33/18Z TN25/08Z BECMG 1718/1723 05008KT SCT016

超过4000个机场的气象观测和天气预报(METAR&TAF报告)。

可查询的气象台以黄色和红色小点在地图上表示。

将鼠标移到小点上方,可查看气象台名称。

然后点击查看天气观测和预报。

如需切换地图:点击带黑十字的绿色按钮放大地图;点击带横线的绿色按钮缩小地图;或者点击绿色箭头查看邻近地区的地图。


METAR-TAF: